createdAt,value
2018-11-11T00:00:13.949Z,28.9
2018-11-11T00:01:16.379Z,28.7
2018-11-11T00:02:18.549Z,28.8
2018-11-11T00:03:20.979Z,28.8
2018-11-11T00:04:23.418Z,28.8
2018-11-11T00:05:25.309Z,29.1
2018-11-11T00:06:27.458Z,28.8
2018-11-11T00:07:29.631Z,29
2018-11-11T00:08:31.783Z,28.8
2018-11-11T00:09:34.238Z,29
2018-11-11T00:10:36.119Z,28.9
2018-11-11T00:11:38.265Z,29.2
2018-11-11T00:12:39.897Z,28.8
2018-11-11T00:13:42.326Z,29
2018-11-11T00:14:44.746Z,29.1
2018-11-11T00:15:46.928Z,29.1
2018-11-11T00:16:49.091Z,29
2018-11-11T00:17:51.242Z,29.1
2018-11-11T00:18:53.667Z,29
2018-11-11T00:19:55.828Z,29.1
2018-11-11T00:20:57.979Z,29.1
2018-11-11T00:22:00.140Z,29.2
2018-11-11T00:23:02.304Z,29.1
2018-11-11T00:24:04.739Z,29.1
2018-11-11T00:25:06.889Z,29.1
2018-11-11T00:26:09.317Z,29.2
2018-11-11T00:27:11.478Z,29.2
2018-11-11T00:28:13.897Z,29.2
2018-11-11T00:29:16.329Z,29.2
2018-11-11T00:30:18.240Z,29.2
2018-11-11T00:31:20.663Z,29.3
2018-11-11T00:32:22.829Z,29.3
2018-11-11T00:33:24.701Z,29.2
2018-11-11T00:34:27.128Z,29.3
2018-11-11T00:35:29.545Z,29.4
2018-11-11T00:36:31.690Z,29.3
2018-11-11T00:37:34.116Z,29.3
2018-11-11T00:38:36.003Z,29.3
2018-11-11T00:39:38.367Z,29.3
2018-11-11T00:40:41.343Z,29.3
2018-11-11T00:41:43.789Z,29.6
2018-11-11T00:42:45.659Z,29.4
2018-11-11T00:43:47.818Z,29.4
2018-11-11T00:44:49.716Z,29.4
2018-11-11T00:45:51.598Z,29.4
2018-11-11T00:46:53.489Z,29.3
2018-11-11T00:47:55.919Z,29.6
2018-11-11T00:48:58.076Z,29.6
2018-11-11T00:50:00.510Z,29.4
2018-11-11T00:51:02.965Z,29.4
2018-11-11T00:52:05.119Z,29.5
2018-11-11T00:53:07.296Z,29.4
2018-11-11T00:54:09.718Z,29.4
2018-11-11T00:55:12.167Z,29.4
2018-11-11T00:56:14.057Z,29.4
2018-11-11T00:57:16.486Z,29.6
2018-11-11T00:58:18.647Z,29.6
2018-11-11T00:59:20.790Z,29.5
2018-11-11T01:00:22.959Z,29.6
2018-11-11T01:01:25.123Z,29.5
2018-11-11T01:02:26.989Z,29.6
2018-11-11T01:03:29.117Z,29.4
2018-11-11T01:04:31.550Z,29.5
2018-11-11T01:05:33.707Z,29.7
2018-11-11T01:06:36.152Z,29.6
2018-11-11T01:07:38.578Z,29.6
2018-11-11T01:08:40.741Z,29.7
2018-11-11T01:09:43.186Z,29.6
2018-11-11T01:10:45.331Z,29.5
2018-11-11T01:11:47.475Z,29.7
2018-11-11T01:12:49.369Z,29.5
2018-11-11T01:13:51.575Z,29.7
2018-11-11T01:14:53.433Z,29.4
2018-11-11T01:15:55.317Z,29.6
2018-11-11T01:16:57.478Z,29.6
2018-11-11T01:17:59.347Z,29.6
2018-11-11T01:19:01.774Z,29.6
2018-11-11T01:20:03.930Z,29.6
2018-11-11T01:21:06.081Z,29.6
2018-11-11T01:22:07.686Z,29.6
2018-11-11T01:23:10.119Z,29.8
2018-11-11T01:24:12.271Z,29.6
2018-11-11T01:25:14.700Z,29.7
2018-11-11T01:26:16.569Z,29.7
2018-11-11T01:27:18.701Z,29.6
2018-11-11T01:28:20.589Z,29.7
2018-11-11T01:29:22.199Z,29.7
2018-11-11T01:30:23.812Z,29.8
2018-11-11T01:31:25.948Z,29.6
2018-11-11T01:32:27.820Z,29.6
2018-11-11T01:33:29.714Z,29.7
2018-11-11T01:34:32.143Z,29.7
2018-11-11T01:35:34.569Z,29.6
2018-11-11T01:36:36.995Z,29.7
2018-11-11T01:37:39.427Z,29.6
2018-11-11T01:38:41.563Z,29.7
2018-11-11T01:39:43.709Z,29.6
2018-11-11T01:40:46.167Z,29.7
2018-11-11T01:41:48.306Z,29.7
2018-11-11T01:42:50.460Z,29.7
2018-11-11T01:43:52.648Z,29.7
2018-11-11T01:44:54.799Z,29.7
2018-11-11T01:45:56.938Z,29.7
2018-11-11T01:46:58.799Z,29.7
2018-11-11T01:48:01.228Z,29.9
2018-11-11T01:49:03.389Z,29.8
2018-11-11T01:50:05.824Z,29.7
2018-11-11T01:51:07.981Z,29.8
2018-11-11T01:52:10.417Z,29.7
2018-11-11T01:53:12.578Z,29.7
2018-11-11T01:54:14.465Z,29.8
2018-11-11T01:55:16.893Z,29.8
2018-11-11T01:56:19.052Z,29.8
2018-11-11T01:57:21.201Z,29.8
2018-11-11T01:58:23.356Z,29.7
2018-11-11T01:59:25.509Z,29.8
2018-11-11T02:00:27.948Z,29.8
2018-11-11T02:01:30.096Z,29.8
2018-11-11T02:02:32.251Z,29.7
2018-11-11T02:03:34.137Z,29.8
2018-11-11T02:04:36.294Z,29.8
2018-11-11T02:05:38.727Z,29.9
2018-11-11T02:06:40.910Z,29.7
2018-11-11T02:07:42.521Z,29.7
2018-11-11T02:08:44.406Z,29.8
2018-11-11T02:09:46.317Z,29.7
2018-11-11T02:10:49.172Z,29.8
2018-11-11T02:11:50.762Z,29.8
2018-11-11T02:12:52.374Z,29.8
2018-11-11T02:13:54.808Z,29.8
2018-11-11T02:14:57.238Z,29.8
2018-11-11T02:15:59.398Z,29.8
2018-11-11T02:17:01.537Z,29.8
2018-11-11T02:18:03.418Z,29.8
2018-11-11T02:19:05.582Z,29.8
2018-11-11T02:20:07.732Z,29.7
2018-11-11T02:21:10.392Z,29.8
2018-11-11T02:22:12.798Z,29.8
2018-11-11T02:23:15.236Z,29.8
2018-11-11T02:24:17.373Z,29.8
2018-11-11T02:25:19.500Z,29.8
2018-11-11T02:26:21.659Z,29.9
2018-11-11T02:27:24.091Z,29.9
2018-11-11T02:28:25.671Z,29.8
2018-11-11T02:29:27.552Z,29.8
2018-11-11T02:30:29.972Z,29.8
2018-11-11T02:31:32.117Z,29.8
2018-11-11T02:32:34.288Z,29.8
2018-11-11T02:33:36.711Z,29.9
2018-11-11T02:34:38.612Z,29.8
2018-11-11T02:35:39.920Z,29.9
2018-11-11T02:36:42.076Z,29.8
2018-11-11T02:37:44.187Z,29.8
2018-11-11T02:38:47.296Z,29.7
2018-11-11T02:39:49.154Z,29.8
2018-11-11T02:40:51.313Z,29.8
2018-11-11T02:41:52.919Z,30
2018-11-11T02:42:55.346Z,29.9
2018-11-11T02:43:57.226Z,29.9
2018-11-11T02:44:59.395Z,29.9
2018-11-11T02:46:01.826Z,29.8
2018-11-11T02:47:03.967Z,29.8
2018-11-11T02:48:06.133Z,29.9
2018-11-11T02:49:08.300Z,29.7
2018-11-11T02:50:10.468Z,29.9
2018-11-11T02:51:12.063Z,29.9
2018-11-11T02:52:14.227Z,29.9
2018-11-11T02:53:16.116Z,29.9
2018-11-11T02:54:18.261Z,29.9
2018-11-11T02:55:20.423Z,29.8
2018-11-11T02:56:22.589Z,29.9
2018-11-11T02:57:24.739Z,29.8
2018-11-11T02:58:26.327Z,29.9
2018-11-11T02:59:28.223Z,29.9
2018-11-11T03:00:30.098Z,29.9
2018-11-11T03:01:31.978Z,29.8
2018-11-11T03:02:34.138Z,29.9
2018-11-11T03:03:36.001Z,29.8
2018-11-11T03:04:38.173Z,29.8
2018-11-11T03:05:40.592Z,29.8
2018-11-11T03:06:42.184Z,29.8
2018-11-11T03:07:44.341Z,29.9
2018-11-11T03:08:46.507Z,29.9
2018-11-11T03:09:48.389Z,29.8
2018-11-11T03:10:50.542Z,29.9
2018-11-11T03:11:52.129Z,29.7
2018-11-11T03:12:54.555Z,29.9
2018-11-11T03:13:56.979Z,29.9
2018-11-11T03:14:58.867Z,29.8
2018-11-11T03:16:01.012Z,29.8
2018-11-11T03:17:03.439Z,29.8
2018-11-11T03:18:05.604Z,29.9
2018-11-11T03:19:07.750Z,29.8
2018-11-11T03:20:10.193Z,30
2018-11-11T03:21:11.509Z,29.8
2018-11-11T03:22:13.939Z,29.8
2018-11-11T03:23:15.841Z,29.9
2018-11-11T03:24:17.728Z,29.8
2018-11-11T03:25:19.885Z,29.8
2018-11-11T03:26:22.052Z,29.8
2018-11-11T03:27:24.209Z,29.8
2018-11-11T03:28:26.358Z,29.8
2018-11-11T03:29:28.791Z,29.8
2018-11-11T03:30:31.219Z,29.8
2018-11-11T03:31:32.809Z,29.9
2018-11-11T03:32:34.679Z,29.8
2018-11-11T03:33:36.836Z,29.9
2018-11-11T03:34:38.986Z,29.9
2018-11-11T03:35:41.150Z,29.8
2018-11-11T03:36:43.588Z,29.9
2018-11-11T03:37:45.468Z,29.9
2018-11-11T03:38:47.893Z,29.8
2018-11-11T03:39:50.038Z,29.9
2018-11-11T03:40:52.192Z,29.8
2018-11-11T03:41:54.365Z,29.9
2018-11-11T03:42:56.533Z,29.8
2018-11-11T03:43:58.716Z,29.9
2018-11-11T03:45:01.140Z,29.9
2018-11-11T03:46:03.293Z,29.9
2018-11-11T03:47:05.178Z,29.7
2018-11-11T03:48:07.318Z,29.8
2018-11-11T03:49:09.479Z,29.8
2018-11-11T03:50:11.909Z,29.9
2018-11-11T03:51:14.065Z,29.9
2018-11-11T03:52:16.239Z,29.9
2018-11-11T03:53:18.376Z,29.8
2018-11-11T03:54:20.552Z,29.8
2018-11-11T03:55:22.969Z,29.9
2018-11-11T03:56:25.403Z,29.8
2018-11-11T03:57:26.992Z,30
2018-11-11T03:58:29.232Z,29.9
2018-11-11T03:59:31.475Z,29.9
2018-11-11T04:00:33.360Z,29.9
2018-11-11T04:01:35.521Z,29.9
2018-11-11T04:02:37.695Z,29.9
2018-11-11T04:03:39.604Z,29.8
2018-11-11T04:04:42.028Z,29.9
2018-11-11T04:05:44.168Z,29.7
2018-11-11T04:06:46.332Z,29.8
2018-11-11T04:07:48.227Z,29.8
2018-11-11T04:08:50.659Z,29.7
2018-11-11T04:09:52.268Z,29.6
2018-11-11T04:10:54.150Z,29.6
2018-11-11T04:11:56.026Z,29.7
2018-11-11T04:12:57.358Z,29.7
2018-11-11T04:13:59.262Z,29.7
2018-11-11T04:15:01.415Z,29.6
2018-11-11T04:16:03.896Z,29.6
2018-11-11T04:17:05.769Z,29.5
2018-11-11T04:18:08.188Z,29.5
2018-11-11T04:19:10.616Z,29.6
2018-11-11T04:20:13.044Z,29.4
2018-11-11T04:21:15.469Z,29.5
2018-11-11T04:22:17.619Z,29.4
2018-11-11T04:23:20.047Z,29.4
2018-11-11T04:24:22.479Z,29.5
2018-11-11T04:25:24.359Z,29.4
2018-11-11T04:26:26.512Z,29.7
2018-11-11T04:27:28.951Z,29.7
2018-11-11T04:28:30.836Z,29.4
2018-11-11T04:29:33.012Z,29.3
2018-11-11T04:30:35.180Z,29.4
2018-11-11T04:31:37.613Z,29.4
2018-11-11T04:32:39.764Z,29.3
2018-11-11T04:33:41.378Z,29.4
2018-11-11T04:34:43.829Z,29.6
2018-11-11T04:35:45.976Z,29.5
2018-11-11T04:36:48.414Z,29.4
2018-11-11T04:37:50.847Z,29.5
2018-11-11T04:38:53.072Z,29.3
2018-11-11T04:39:55.204Z,29.2
2018-11-11T04:40:57.069Z,29.4
2018-11-11T04:41:59.224Z,29.2
2018-11-11T04:43:01.390Z,29.5
2018-11-11T04:44:03.545Z,29.3
2018-11-11T04:45:05.977Z,29.3
2018-11-11T04:46:08.133Z,29.3
2018-11-11T04:47:10.280Z,29.2
2018-11-11T04:48:12.439Z,29.2
2018-11-11T04:49:14.868Z,29.3
2018-11-11T04:50:17.083Z,29.5
2018-11-11T04:51:19.243Z,29.3
2018-11-11T04:52:21.390Z,29.2
2018-11-11T04:53:23.539Z,29.3
2018-11-11T04:54:25.406Z,29.2
2018-11-11T04:55:27.557Z,29.3
2018-11-11T04:56:28.876Z,29.2
2018-11-11T04:57:31.062Z,29.3
2018-11-11T04:58:32.647Z,29.3
2018-11-11T04:59:34.250Z,29.3
2018-11-11T05:00:36.417Z,29.2
2018-11-11T05:01:39.297Z,29.4
2018-11-11T05:02:42.075Z,29.3
2018-11-11T05:03:44.493Z,29.2
2018-11-11T05:04:46.401Z,29.2
2018-11-11T05:05:49.416Z,29.2
2018-11-11T05:06:51.837Z,29.2
2018-11-11T05:07:54.257Z,29.2
2018-11-11T05:08:56.681Z,29.1
2018-11-11T05:09:58.838Z,29.1
2018-11-11T05:11:00.713Z,29.2
2018-11-11T05:12:02.880Z,29.1
2018-11-11T05:13:05.026Z,29.3
2018-11-11T05:14:07.460Z,29.2
2018-11-11T05:15:09.896Z,29.2
2018-11-11T05:16:11.767Z,29.2
2018-11-11T05:17:14.199Z,29.2
2018-11-11T05:18:16.358Z,29.1
2018-11-11T05:19:18.499Z,29.1
2018-11-11T05:20:20.657Z,29.1
2018-11-11T05:21:22.277Z,29.2
2018-11-11T05:22:24.440Z,29.1
2018-11-11T05:23:26.606Z,29.1
2018-11-11T05:24:28.765Z,29.2
2018-11-11T05:25:30.928Z,29.1
2018-11-11T05:26:33.058Z,29.1
2018-11-11T05:27:35.494Z,29.1
2018-11-11T05:28:37.400Z,29.3
2018-11-11T05:29:39.013Z,29.2
2018-11-11T05:30:40.871Z,29.2
2018-11-11T05:31:43.345Z,29.1
2018-11-11T05:32:45.767Z,29.2
2018-11-11T05:33:48.192Z,29.2
2018-11-11T05:34:50.357Z,29.1
2018-11-11T05:35:52.525Z,29.1
2018-11-11T05:36:54.953Z,29.2
2018-11-11T05:37:56.839Z,29.3
2018-11-11T05:38:58.724Z,29.1
2018-11-11T05:40:01.174Z,29.2
2018-11-11T05:41:03.316Z,29.1
2018-11-11T05:42:05.200Z,29.1
2018-11-11T05:43:06.795Z,29.2
2018-11-11T05:44:08.413Z,29.2
2018-11-11T05:45:10.573Z,29.1
2018-11-11T05:46:12.725Z,29.1
2018-11-11T05:47:15.152Z,29.2
2018-11-11T05:48:17.054Z,29.2
2018-11-11T05:49:19.497Z,29.2
2018-11-11T05:50:21.629Z,29.2
2018-11-11T05:51:23.543Z,29.1
2018-11-11T05:52:25.767Z,29.2
2018-11-11T05:53:27.653Z,29.1
2018-11-11T05:54:30.111Z,29.1
2018-11-11T05:55:31.999Z,29.2
2018-11-11T05:56:34.189Z,29.1
2018-11-11T05:57:36.338Z,29.1
2018-11-11T05:58:38.490Z,29
2018-11-11T05:59:40.639Z,29.1
2018-11-11T06:00:43.069Z,29.1
2018-11-11T06:01:45.226Z,29.1
2018-11-11T06:02:47.105Z,29.1
2018-11-11T06:03:48.993Z,29
2018-11-11T06:04:51.410Z,29.1
2018-11-11T06:05:53.016Z,29
2018-11-11T06:06:54.619Z,29.1
2018-11-11T06:07:57.049Z,29.2
2018-11-11T06:08:59.207Z,29
2018-11-11T06:10:01.378Z,29.1
2018-11-11T06:11:03.252Z,29.1
2018-11-11T06:12:05.162Z,29.1
2018-11-11T06:13:07.317Z,29.1
2018-11-11T06:14:09.477Z,28.9
2018-11-11T06:15:11.643Z,29.1
2018-11-11T06:16:14.069Z,29.1
2018-11-11T06:17:15.971Z,29.1
2018-11-11T06:18:18.119Z,29
2018-11-11T06:19:20.297Z,29
2018-11-11T06:20:22.455Z,28.9
2018-11-11T06:21:24.608Z,29.1
2018-11-11T06:22:27.024Z,29.2
2018-11-11T06:23:29.449Z,29.1
2018-11-11T06:24:31.597Z,29
2018-11-11T06:25:34.025Z,29.1
2018-11-11T06:26:36.459Z,29.1
2018-11-11T06:27:39.251Z,29.1
2018-11-11T06:28:41.635Z,29
2018-11-11T06:29:43.789Z,29
2018-11-11T06:30:45.666Z,28.8
2018-11-11T06:31:47.515Z,28.9
2018-11-11T06:32:49.964Z,29
2018-11-11T06:33:51.887Z,29
2018-11-11T06:34:54.726Z,29.1
2018-11-11T06:35:56.873Z,29.1
2018-11-11T06:36:59.309Z,29
2018-11-11T06:38:01.166Z,29.1
2018-11-11T06:39:03.039Z,29.1
2018-11-11T06:40:04.657Z,29.2
2018-11-11T06:41:06.533Z,29
2018-11-11T06:42:08.968Z,29.1
2018-11-11T06:43:10.850Z,28.9
2018-11-11T06:44:13.008Z,28.8
2018-11-11T06:45:15.168Z,29
2018-11-11T06:46:17.341Z,29
2018-11-11T06:47:19.769Z,28.8
2018-11-11T06:48:21.922Z,29
2018-11-11T06:49:23.810Z,29
2018-11-11T06:50:25.673Z,28.9
2018-11-11T06:51:27.829Z,28.7
2018-11-11T06:52:29.989Z,29
2018-11-11T06:53:32.129Z,29.1
2018-11-11T06:54:34.305Z,29.1
2018-11-11T06:55:36.176Z,29.1
2018-11-11T06:56:38.328Z,28.9
2018-11-11T06:57:40.500Z,29.1
2018-11-11T06:58:42.648Z,29.1
2018-11-11T06:59:44.795Z,28.9
2018-11-11T07:00:46.943Z,29
2018-11-11T07:01:48.809Z,29.1
2018-11-11T07:02:50.939Z,29.2
2018-11-11T07:03:53.363Z,29.1
2018-11-11T07:04:55.237Z,29
2018-11-11T07:05:57.112Z,29.1
2018-11-11T07:06:58.991Z,28.9
2018-11-11T07:08:01.133Z,29.1
2018-11-11T07:09:02.999Z,28.8
2018-11-11T07:10:05.161Z,29.1
2018-11-11T07:11:07.303Z,28.9
2018-11-11T07:12:09.461Z,29.1
2018-11-11T07:13:11.603Z,28.8
2018-11-11T07:14:14.435Z,29.1
2018-11-11T07:15:16.547Z,29.1
2018-11-11T07:16:18.680Z,29.1
2018-11-11T07:17:20.343Z,28.8
2018-11-11T07:18:22.768Z,29
2018-11-11T07:19:25.189Z,29.1
2018-11-11T07:20:27.611Z,29
2018-11-11T07:21:29.771Z,29.1
2018-11-11T07:22:31.940Z,28.9
2018-11-11T07:23:34.194Z,28.9
2018-11-11T07:24:36.518Z,29.1
2018-11-11T07:25:38.686Z,28.8
2018-11-11T07:26:41.124Z,28.9
2018-11-11T07:27:43.542Z,29
2018-11-11T07:28:45.764Z,29
2018-11-11T07:29:47.909Z,29.2
2018-11-11T07:30:50.080Z,28.9
2018-11-11T07:31:52.511Z,28.8
2018-11-11T07:32:54.933Z,28.9
2018-11-11T07:33:57.109Z,29
2018-11-11T07:34:59.255Z,29
2018-11-11T07:36:01.693Z,29.1
2018-11-11T07:37:04.624Z,28.9
2018-11-11T07:38:06.771Z,28.9
2018-11-11T07:39:08.916Z,28.9
2018-11-11T07:40:11.069Z,29
2018-11-11T07:41:12.691Z,28.8
2018-11-11T07:42:14.893Z,28.7
2018-11-11T07:43:17.468Z,29
2018-11-11T07:44:19.897Z,29
2018-11-11T07:45:22.335Z,29
2018-11-11T07:46:24.488Z,28.8
2018-11-11T07:47:26.925Z,28.9
2018-11-11T07:48:29.357Z,29
2018-11-11T07:49:31.793Z,29
2018-11-11T07:50:33.935Z,28.9
2018-11-11T07:51:35.827Z,29
2018-11-11T07:52:38.266Z,28.9
2018-11-11T07:53:40.689Z,29.1
2018-11-11T07:54:43.169Z,29
2018-11-11T07:55:45.458Z,28.8
2018-11-11T07:56:47.953Z,29
2018-11-11T07:57:49.837Z,28.8
2018-11-11T07:58:51.435Z,28.9
2018-11-11T07:59:53.317Z,28.9
2018-11-11T08:00:55.476Z,28.9
2018-11-11T08:01:57.395Z,28.8
2018-11-11T08:02:59.908Z,29
2018-11-11T08:04:02.080Z,29
2018-11-11T08:05:03.978Z,28.9
2018-11-11T08:06:06.133Z,28.9
2018-11-11T08:07:08.554Z,29
2018-11-11T08:08:10.713Z,28.9
2018-11-11T08:09:12.858Z,28.9
2018-11-11T08:10:15.004Z,28.9
2018-11-11T08:11:16.896Z,28.9
2018-11-11T08:12:18.969Z,29
2018-11-11T08:13:21.120Z,28.9
2018-11-11T08:14:23.269Z,28.9
2018-11-11T08:15:25.428Z,28.8
2018-11-11T08:16:27.582Z,28.8
2018-11-11T08:17:29.502Z,28.9
2018-11-11T08:18:31.380Z,28.8
2018-11-11T08:19:33.255Z,28.9
2018-11-11T08:20:35.427Z,28.9
2018-11-11T08:21:37.562Z,28.8
2018-11-11T08:22:39.718Z,29
2018-11-11T08:23:41.898Z,28.8
2018-11-11T08:24:43.800Z,29.1
2018-11-11T08:25:46.232Z,28.8
2018-11-11T08:26:48.663Z,29
2018-11-11T08:27:50.838Z,28.7
2018-11-11T08:28:53.266Z,29.1
2018-11-11T08:29:55.402Z,28.9
2018-11-11T08:30:57.583Z,28.9
2018-11-11T08:31:59.207Z,29
2018-11-11T08:33:01.531Z,29
2018-11-11T08:34:03.958Z,28.8
2018-11-11T08:35:05.577Z,28.9
2018-11-11T08:36:07.478Z,28.9
2018-11-11T08:37:09.631Z,28.9
2018-11-11T08:38:11.770Z,28.8
2018-11-11T08:39:14.196Z,28.8
2018-11-11T08:40:16.699Z,28.9
2018-11-11T08:41:19.329Z,28.9
2018-11-11T08:42:21.763Z,28.8
2018-11-11T08:43:23.657Z,28.7
2018-11-11T08:44:26.079Z,28.9
2018-11-11T08:45:27.419Z,29
2018-11-11T08:46:29.846Z,28.9
2018-11-11T08:47:32.269Z,29
2018-11-11T08:48:33.891Z,29
2018-11-11T08:49:36.322Z,28.8
2018-11-11T08:50:38.474Z,28.9
2018-11-11T08:51:40.909Z,28.9
2018-11-11T08:52:43.343Z,28.8
2018-11-11T08:53:45.215Z,29
2018-11-11T08:54:47.105Z,28.8
2018-11-11T08:55:49.268Z,28.9
2018-11-11T08:56:51.699Z,29
2018-11-11T08:57:53.690Z,28.9
2018-11-11T08:58:56.004Z,29
2018-11-11T08:59:58.463Z,28.8
2018-11-11T09:01:00.640Z,28.8
2018-11-11T09:02:02.781Z,29.2
2018-11-11T09:03:04.938Z,28.9
2018-11-11T09:04:06.552Z,28.8
2018-11-11T09:05:08.416Z,28.9
2018-11-11T09:06:09.728Z,28.9
2018-11-11T09:07:11.617Z,28.7
2018-11-11T09:08:14.040Z,28.7
2018-11-11T09:09:16.201Z,28.8
2018-11-11T09:10:18.641Z,28.9
2018-11-11T09:11:21.235Z,28.8
2018-11-11T09:12:23.637Z,28.9
2018-11-11T09:13:25.802Z,28.8
2018-11-11T09:14:27.746Z,28.9
2018-11-11T09:15:30.180Z,28.9
2018-11-11T09:16:32.634Z,28.9
2018-11-11T09:17:34.955Z,28.7
2018-11-11T09:18:36.919Z,29
2018-11-11T09:19:39.354Z,28.8
2018-11-11T09:20:41.785Z,28.9
2018-11-11T09:21:43.674Z,28.9
2018-11-11T09:22:45.586Z,28.9
2018-11-11T09:23:47.840Z,28.8
2018-11-11T09:24:50.804Z,28.9
2018-11-11T09:25:52.989Z,28.9
2018-11-11T09:26:54.596Z,29
2018-11-11T09:27:56.734Z,28.8
2018-11-11T09:28:58.946Z,28.9
2018-11-11T09:30:00.859Z,28.8
2018-11-11T09:31:03.014Z,28.9
2018-11-11T09:32:05.180Z,29
2018-11-11T09:33:07.624Z,28.8
2018-11-11T09:34:09.773Z,28.9
2018-11-11T09:35:12.126Z,28.8
2018-11-11T09:36:14.823Z,28.9
2018-11-11T09:37:16.983Z,28.9
2018-11-11T09:38:19.165Z,28.9
2018-11-11T09:39:21.330Z,29
2018-11-11T09:40:23.765Z,28.8
2018-11-11T09:41:25.668Z,28.8
2018-11-11T09:42:27.939Z,28.8
2018-11-11T09:43:29.960Z,28.8
2018-11-11T09:44:32.100Z,28.7
2018-11-11T09:45:34.529Z,28.8
2018-11-11T09:46:36.683Z,28.8
2018-11-11T09:47:38.597Z,29.1
2018-11-11T09:48:40.867Z,28.9
2018-11-11T09:49:43.020Z,28.8
2018-11-11T09:50:45.171Z,28.9
2018-11-11T09:51:47.337Z,28.9
2018-11-11T09:52:49.427Z,28.9
2018-11-11T09:53:52.540Z,28.9
2018-11-11T09:54:54.780Z,28.8
2018-11-11T09:55:57.219Z,29
2018-11-11T09:56:59.409Z,28.8
2018-11-11T09:58:01.567Z,28.9
2018-11-11T09:59:03.738Z,28.7
2018-11-11T10:00:06.175Z,29
2018-11-11T10:01:08.614Z,28.8
2018-11-11T10:02:10.768Z,28.8
2018-11-11T10:03:12.898Z,28.9
2018-11-11T10:04:15.332Z,28.8
2018-11-11T10:05:17.508Z,28.9
2018-11-11T10:06:19.145Z,28.9
2018-11-11T10:07:21.644Z,28.9
2018-11-11T10:08:23.802Z,28.7
2018-11-11T10:09:26.232Z,29
2018-11-11T10:10:28.366Z,29
2018-11-11T10:11:30.791Z,28.7
2018-11-11T10:12:33.468Z,29
2018-11-11T10:13:36.003Z,28.9
2018-11-11T10:14:37.899Z,29.1
2018-11-11T10:15:39.780Z,28.7
2018-11-11T10:16:42.191Z,28.8
2018-11-11T10:17:44.081Z,28.9
2018-11-11T10:18:46.238Z,28.8
2018-11-11T10:19:48.110Z,29.1
2018-11-11T10:20:50.141Z,28.8
2018-11-11T10:21:52.853Z,28.8
2018-11-11T10:22:55.287Z,28.9
2018-11-11T10:23:56.894Z,29
2018-11-11T10:24:59.343Z,28.9
2018-11-11T10:26:01.780Z,28.7
2018-11-11T10:27:04.260Z,28.8
2018-11-11T10:28:06.469Z,28.8
2018-11-11T10:29:08.648Z,29
2018-11-11T10:30:10.945Z,28.8
2018-11-11T10:31:12.816Z,28.9
2018-11-11T10:32:14.418Z,28.8
2018-11-11T10:33:16.587Z,28.9
2018-11-11T10:34:19.148Z,28.9
2018-11-11T10:35:21.043Z,28.9
2018-11-11T10:36:23.190Z,28.9
2018-11-11T10:37:25.780Z,28.9
2018-11-11T10:38:28.380Z,28.9
2018-11-11T10:39:30.810Z,28.8
2018-11-11T10:40:32.705Z,28.9
2018-11-11T10:41:34.872Z,28.9
2018-11-11T10:42:37.005Z,29
2018-11-11T10:43:39.131Z,28.8
2018-11-11T10:44:41.024Z,29
2018-11-11T10:45:43.191Z,28.9
2018-11-11T10:46:45.624Z,28.9
2018-11-11T10:47:47.509Z,29
2018-11-11T10:48:49.669Z,28.8
2018-11-11T10:49:51.821Z,28.8
2018-11-11T10:50:54.000Z,28.9
2018-11-11T10:51:56.455Z,29.1
2018-11-11T10:52:58.336Z,28.8
2018-11-11T10:54:00.505Z,28.8
2018-11-11T10:55:02.379Z,28.8
2018-11-11T10:56:04.801Z,28.8
2018-11-11T10:57:06.957Z,29
2018-11-11T10:58:08.544Z,28.9
2018-11-11T10:59:10.444Z,28.7
2018-11-11T11:00:12.409Z,28.9
2018-11-11T11:01:15.147Z,28.8
2018-11-11T11:02:17.048Z,28.9
2018-11-11T11:03:18.919Z,28.8
2018-11-11T11:04:20.820Z,28.9
2018-11-11T11:05:23.005Z,28.9
2018-11-11T11:06:25.427Z,29
2018-11-11T11:07:27.587Z,28.9
2018-11-11T11:08:29.748Z,28.9
2018-11-11T11:09:32.179Z,28.7
2018-11-11T11:10:34.604Z,28.8
2018-11-11T11:11:36.191Z,28.8
2018-11-11T11:12:38.619Z,28.9
2018-11-11T11:13:40.567Z,28.8
2018-11-11T11:14:42.896Z,28.8
2018-11-11T11:15:45.353Z,28.8
2018-11-11T11:16:47.475Z,28.9
2018-11-11T11:17:49.632Z,28.8
2018-11-11T11:18:52.069Z,28.8
2018-11-11T11:19:54.505Z,29
2018-11-11T11:20:56.946Z,28.8
2018-11-11T11:21:58.568Z,28.8
2018-11-11T11:23:00.867Z,28.8
2018-11-11T11:24:03.719Z,28.8
2018-11-11T11:25:05.619Z,28.8
2018-11-11T11:26:08.050Z,28.8
2018-11-11T11:27:10.017Z,28.8
2018-11-11T11:28:12.718Z,28.8
2018-11-11T11:29:14.880Z,28.7
2018-11-11T11:30:17.050Z,28.8
2018-11-11T11:31:19.364Z,28.9
2018-11-11T11:32:21.969Z,28.9
2018-11-11T11:33:23.556Z,28.8
2018-11-11T11:34:25.797Z,28.9
2018-11-11T11:35:27.736Z,28.8
2018-11-11T11:36:30.015Z,28.8
2018-11-11T11:37:32.449Z,28.8
2018-11-11T11:38:34.887Z,28.7
2018-11-11T11:39:37.182Z,28.7
2018-11-11T11:40:39.719Z,28.8
2018-11-11T11:41:41.618Z,28.9
2018-11-11T11:42:43.791Z,28.8
2018-11-11T11:43:45.692Z,28.8
2018-11-11T11:44:47.830Z,28.9
2018-11-11T11:45:49.738Z,28.8
2018-11-11T11:46:51.909Z,28.9
2018-11-11T11:47:53.800Z,28.8
2018-11-11T11:48:56.231Z,28.7
2018-11-11T11:49:58.803Z,28.8
2018-11-11T11:51:01.203Z,28.8
2018-11-11T11:52:03.366Z,28.9
2018-11-11T11:53:05.854Z,28.8
2018-11-11T11:54:07.675Z,28.7
2018-11-11T11:55:09.843Z,28.8
2018-11-11T11:56:12.290Z,28.8
2018-11-11T11:57:14.460Z,28.9
2018-11-11T11:58:17.111Z,28.7
2018-11-11T11:59:19.608Z,28.9
2018-11-11T12:00:21.757Z,28.8
2018-11-11T12:01:23.935Z,28.8
2018-11-11T12:02:26.110Z,28.8
2018-11-11T12:03:28.273Z,28.7
2018-11-11T12:04:29.869Z,28.8
2018-11-11T12:05:31.721Z,28.7
2018-11-11T12:06:33.588Z,28.9
2018-11-11T12:07:35.747Z,28.8
2018-11-11T12:08:38.163Z,28.7
2018-11-11T12:09:40.897Z,28.7
2018-11-11T12:10:43.066Z,28.7
2018-11-11T12:11:44.945Z,28.8
2018-11-11T12:12:46.827Z,28.8
2018-11-11T12:13:48.729Z,28.8
2018-11-11T12:14:51.155Z,28.7
2018-11-11T12:15:53.326Z,28.8
2018-11-11T12:16:55.830Z,28.9
2018-11-11T12:17:58.107Z,28.8
2018-11-11T12:19:00.548Z,28.9
2018-11-11T12:20:02.402Z,28.8
2018-11-11T12:21:04.007Z,28.9
2018-11-11T12:22:06.459Z,28.8
2018-11-11T12:23:08.691Z,28.7
2018-11-11T12:24:11.074Z,28.9
2018-11-11T12:25:12.938Z,28.7
2018-11-11T12:26:15.090Z,28.7
2018-11-11T12:27:17.534Z,28.8
2018-11-11T12:28:19.704Z,28.8
2018-11-11T12:29:22.144Z,28.8
2018-11-11T12:30:24.372Z,28.9
2018-11-11T12:31:26.918Z,28.8
2018-11-11T12:32:29.082Z,28.9
2018-11-11T12:33:30.719Z,28.8
2018-11-11T12:34:32.857Z,28.7
2018-11-11T12:35:34.747Z,28.8
2018-11-11T12:36:37.177Z,28.7
2018-11-11T12:37:39.064Z,28.7
2018-11-11T12:38:41.498Z,28.7
2018-11-11T12:39:44.187Z,28.7
2018-11-11T12:40:46.799Z,28.7
2018-11-11T12:41:48.927Z,28.7
2018-11-11T12:42:51.400Z,28.8
2018-11-11T12:43:53.539Z,28.8
2018-11-11T12:44:55.950Z,28.8
2018-11-11T12:45:58.760Z,28.9
2018-11-11T12:47:01.692Z,28.8
2018-11-11T12:48:04.499Z,28.8
2018-11-11T12:49:06.793Z,28.9
2018-11-11T12:50:08.902Z,28.8
2018-11-11T12:51:10.970Z,28.8
2018-11-11T12:52:12.874Z,28.9
2018-11-11T12:53:15.028Z,28.8
2018-11-11T12:54:17.193Z,28.7
2018-11-11T12:55:19.430Z,28.7
2018-11-11T12:56:22.177Z,28.8
2018-11-11T12:57:24.611Z,28.8
2018-11-11T12:58:26.786Z,28.8
2018-11-11T12:59:28.948Z,28.9
2018-11-11T13:00:31.394Z,28.8
2018-11-11T13:01:33.571Z,28.7
2018-11-11T13:02:36.027Z,28.8
2018-11-11T13:03:37.906Z,28.7
2018-11-11T13:04:40.279Z,28.8
2018-11-11T13:05:42.154Z,28.9
2018-11-11T13:06:44.053Z,28.7
2018-11-11T13:07:46.228Z,28.8
2018-11-11T13:08:48.665Z,28.8
2018-11-11T13:09:50.828Z,28.8
2018-11-11T13:10:52.714Z,28.9
2018-11-11T13:11:54.369Z,28.7
2018-11-11T13:12:55.693Z,28.7
2018-11-11T13:13:57.821Z,28.8
2018-11-11T13:14:59.609Z,28.9
2018-11-11T13:16:01.494Z,28.7
2018-11-11T13:17:03.928Z,28.8
2018-11-11T13:18:06.094Z,28.9
2018-11-11T13:19:07.711Z,28.7
2018-11-11T13:20:09.581Z,28.8
2018-11-11T13:21:12.028Z,28.7
2018-11-11T13:22:14.407Z,28.7
2018-11-11T13:23:16.849Z,28.7
2018-11-11T13:24:19.008Z,28.7
2018-11-11T13:25:20.890Z,28.7
2018-11-11T13:26:23.059Z,28.9
2018-11-11T13:27:24.921Z,28.8
2018-11-11T13:28:27.074Z,28.9
2018-11-11T13:29:29.226Z,28.9
2018-11-11T13:30:31.388Z,28.8
2018-11-11T13:31:33.569Z,28.8
2018-11-11T13:32:35.437Z,28.9
2018-11-11T13:33:37.607Z,28.9
2018-11-11T13:34:38.922Z,28.8
2018-11-11T13:35:41.080Z,28.8
2018-11-11T13:36:42.716Z,28.8
2018-11-11T13:37:44.967Z,28.8
2018-11-11T13:38:47.653Z,28.8
2018-11-11T13:39:49.815Z,28.8
2018-11-11T13:40:51.694Z,28.8
2018-11-11T13:41:53.858Z,28.7
2018-11-11T13:42:55.201Z,28.8
2018-11-11T13:43:57.648Z,28.8
2018-11-11T13:44:59.559Z,28.7
2018-11-11T13:46:02.000Z,28.8
2018-11-11T13:47:04.547Z,28.8
2018-11-11T13:48:06.350Z,28.8
2018-11-11T13:49:08.510Z,28.8
2018-11-11T13:50:10.114Z,28.7
2018-11-11T13:51:12.077Z,28.7
2018-11-11T13:52:14.524Z,28.8